Terminal Aerodrome Forecast
Issued by NWS

Home | Current Version | Previous Version | Text Only | Print | Product List | Glossary On
Versions: 1 2 3 4 5 6 7 8 9 10 11 12 13
000
FTUS42 KMLB 281736
TAFISM
TAF
KISM 281736Z 2818/2918 30004KT P6SM SCT045
     FM282100 06010KT P6SM SCT060
     FM290300 VRB03KT P6SM BKN250
     FM291400 26005KT P6SM SCT030 BKN250=

USA.gov is the U.S. government's official web portal to all federal, state and local government web resources and services.